Station Historical Data
Daily Summary for February 19, 2017 Units:  Metric    English   Both
« Previous Day
Next Day »
Daily Weekly Monthly Yearly Custom
  High: Low: Average:
Temperature: 9.6 °C -1.6 °C 3.7 °C
Dew Point: 4.2 °C -2.9 °C 1.2 °C
Humidity: 92% 68% 84%
Wind Speed: 24.1km/h 0km/h 6.6km/h
Wind Gust: 30.6km/h - -
Wind- - SW
Pressure: 1021.2 hPa 1006.7 hPa -
Precipitation: 0 mm    
Historical Graphs
 
 
Tabular Data for February 19, 2017
Time Temperature Dew Point Pressure Wind Wind Speed Wind Gust Humidity Rainfall Rate (Hourly)
00:04 3.3 °C 1.3 °C 1006.7 hPa SW 6.4 km/h 14.5 km/h 87% 0 mm
00:09 3.2 °C 1.1 °C 1006.7 hPa SSW 6.4 km/h 14.5 km/h 86% 0 mm
00:14 3.2 °C 1.2 °C 1006.7 hPa SW 6.4 km/h 14.5 km/h 87% 0 mm
00:19 3.3 °C 1.3 °C 1006.7 hPa SW 9.7 km/h 12.9 km/h 87% 0 mm
00:24 3.3 °C 1.4 °C 1007 hPa SW 4.8 km/h 14.5 km/h 87% 0 mm
00:29 3.4 °C 1.5 °C 1007 hPa SW 6.4 km/h 16.1 km/h 87% 0 mm
00:34 3.6 °C 1.6 °C 1007 hPa WSW 11.3 km/h 14.5 km/h 87% 0 mm
00:39 3.6 °C 1.7 °C 1007 hPa SW 8 km/h 12.9 km/h 87% 0 mm
00:44 3.7 °C 1.6 °C 1007 hPa SW 6.4 km/h 14.5 km/h 86% 0 mm
00:49 3.8 °C 1.7 °C 1007 hPa SW 16.1 km/h 17.7 km/h 86% 0 mm
00:54 3.9 °C 1.8 °C 1007 hPa SW 9.7 km/h 14.5 km/h 86% 0 mm
00:59 3.9 °C 1.8 °C 1007 hPa SW 6.4 km/h 16.1 km/h 86% 0 mm
01:05 3.9 °C 1.8 °C 1007 hPa WSW 6.4 km/h 12.9 km/h 86% 0 mm
01:10 3.9 °C 1.8 °C 1007 hPa South 4.8 km/h 16.1 km/h 86% 0 mm
01:15 4 °C 1.9 °C 1007 hPa SSW 4.8 km/h 14.5 km/h 86% 0 mm
01:20 4.1 °C 1.8 °C 1007 hPa SW 6.4 km/h 12.9 km/h 85% 0 mm
01:25 4 °C 1.7 °C 1007 hPa SW 6.4 km/h 12.9 km/h 85% 0 mm
01:30 4.1 °C 1.8 °C 1007.3 hPa SW 6.4 km/h 14.5 km/h 85% 0 mm
01:35 4.1 °C 1.8 °C 1007.3 hPa SW 6.4 km/h 14.5 km/h 85% 0 mm
01:40 4.1 °C 1.8 °C 1007.3 hPa SW 6.4 km/h 14.5 km/h 85% 0 mm
01:45 4.1 °C 1.8 °C 1007.3 hPa SW 6.4 km/h 14.5 km/h 85% 0 mm
01:50 3.9 °C 1.7 °C 1007.3 hPa SW 4.8 km/h 12.9 km/h 85% 0 mm
01:55 3.9 °C 1.7 °C 1007.7 hPa SW 6.4 km/h 14.5 km/h 85% 0 mm
02:00 3.9 °C 1.6 °C 1007.7 hPa WSW 6.4 km/h 17.7 km/h 85% 0 mm
02:05 3.8 °C 1.6 °C 1007.7 hPa WSW 8 km/h 17.7 km/h 85% 0 mm
02:10 3.8 °C 1.5 °C 1007.7 hPa WSW 9.7 km/h 14.5 km/h 85% 0 mm
02:15 3.8 °C 1.5 °C 1007.7 hPa SW 3.2 km/h 14.5 km/h 85% 0 mm
02:20 3.7 °C 1.6 °C 1007.7 hPa SSW 3.2 km/h 14.5 km/h 86% 0 mm
02:25 3.7 °C 1.6 °C 1007.7 hPa SW 6.4 km/h 14.5 km/h 86% 0 mm
02:35 3.7 °C 1.6 °C 1008 hPa SW 6.4 km/h 12.9 km/h 86% 0 mm
02:40 3.6 °C 1.4 °C 1008 hPa SW 1.6 km/h 9.7 km/h 86% 0 mm
02:45 3.4 °C 1.3 °C 1008 hPa SW 11.3 km/h 11.3 km/h 86% 0 mm
02:50 3.4 °C 1.4 °C 1008 hPa WSW 3.2 km/h 11.3 km/h 87% 0 mm
02:55 3.4 °C 1.4 °C 1008 hPa South 4.8 km/h 9.7 km/h 87% 0 mm
03:00 3.4 °C 1.4 °C 1008 hPa SW 4.8 km/h 9.7 km/h 87% 0 mm
03:05 3.4 °C 1.4 °C 1008 hPa SW 6.4 km/h 14.5 km/h 87% 0 mm
03:10 3.3 °C 1.4 °C 1008 hPa SW 6.4 km/h 14.5 km/h 87% 0 mm
03:15 3.4 °C 1.4 °C 1008.4 hPa SW 8 km/h 12.9 km/h 87% 0 mm
03:20 3.4 °C 1.4 °C 1008.4 hPa SW 9.7 km/h 12.9 km/h 87% 0 mm
03:25 3.4 °C 1.5 °C 1008.4 hPa SW 8 km/h 19.3 km/h 87% 0 mm
03:30 3.4 °C 1.4 °C 1008.4 hPa SW 12.9 km/h 16.1 km/h 87% 0 mm
03:35 3.4 °C 1.4 °C 1008.4 hPa SW 8 km/h 16.1 km/h 87% 0 mm
03:40 3.3 °C 1.4 °C 1008.4 hPa SW 8 km/h 17.7 km/h 87% 0 mm
03:45 3.3 °C 1.3 °C 1008.4 hPa SW 6.4 km/h 17.7 km/h 87% 0 mm
03:50 3.2 °C 1.2 °C 1008.4 hPa SW 4.8 km/h 11.3 km/h 87% 0 mm
03:55 3.1 °C 1.3 °C 1008.7 hPa West 4.8 km/h 9.7 km/h 88% 0 mm
04:05 3.1 °C 1.3 °C 1008.7 hPa WSW 3.2 km/h 9.7 km/h 88% 0 mm
04:10 2.9 °C 1.2 °C 1008.7 hPa SW 4.8 km/h 9.7 km/h 88% 0 mm
04:15 2.9 °C 1.1 °C 1009 hPa SW 4.8 km/h 11.3 km/h 88% 0 mm
04:19 2.8 °C 1.1 °C 1009 hPa WSW 1.6 km/h 6.4 km/h 88% 0 mm
04:25 2.7 °C 0.9 °C 1009 hPa West 1.6 km/h 6.4 km/h 88% 0 mm
04:30 2.7 °C 1.1 °C 1009 hPa SW 4.8 km/h 8 km/h 89% 0 mm
04:35 2.7 °C 1.1 °C 1009.4 hPa WSW 1.6 km/h 8 km/h 89% 0 mm
04:40 2.6 °C 1 °C 1009.4 hPa WSW 3.2 km/h 8 km/h 89% 0 mm
04:45 2.6 °C 0.9 °C 1009.4 hPa SW 3.2 km/h 9.7 km/h 89% 0 mm
04:50 2.4 °C 0.8 °C 1009.4 hPa WSW 1.6 km/h 6.4 km/h 89% 0 mm
04:55 2.3 °C 0.7 °C 1009.4 hPa WSW 1.6 km/h 3.2 km/h 89% 0 mm
05:00 2.2 °C 0.6 °C 1009.4 hPa Calm   4.8 km/h 89% 0 mm
05:04 2.1 °C 0.5 °C 1009.4 hPa SSW 1.6 km/h 4.8 km/h 89% 0 mm
05:10 2.1 °C 0.6 °C 1009.4 hPa SSW 3.2 km/h 6.4 km/h 90% 0 mm
05:15 2.1 °C 0.6 °C 1009.7 hPa SSW 3.2 km/h 6.4 km/h 90% 0 mm
05:20 1.9 °C 0.5 °C 1009.7 hPa SSW 3.2 km/h 8 km/h 90% 0 mm
05:25 1.8 °C 0.4 °C 1010 hPa SW 1.6 km/h 8 km/h 90% 0 mm
05:30 1.9 °C 0.4 °C 1010 hPa SW 1.6 km/h 4.8 km/h 90% 0 mm
05:34 1.7 °C 0.3 °C 1010 hPa SSW 3.2 km/h 4.8 km/h 90% 0 mm
05:39 1.8 °C 0.3 °C 1010 hPa SW 1.6 km/h 6.4 km/h 90% 0 mm
05:45 1.7 °C 0.3 °C 1010 hPa SSW 3.2 km/h 8 km/h 90% 0 mm
05:50 1.7 °C 0.3 °C 1010 hPa SW 3.2 km/h 6.4 km/h 90% 0 mm
05:55 1.8 °C 0.3 °C 1010 hPa SW 3.2 km/h 6.4 km/h 90% 0 mm
06:00 1.7 °C 0.3 °C 1010.4 hPa SW 3.2 km/h 6.4 km/h 90% 0 mm
06:05 1.7 °C 0.2 °C 1010.4 hPa SW 1.6 km/h 8 km/h 90% 0 mm
06:10 1.6 °C 0.1 °C 1010.4 hPa SW 1.6 km/h 8 km/h 90% 0 mm
06:15 1.7 °C 0.3 °C 1010.4 hPa SW 3.2 km/h 6.4 km/h 91% 0 mm
06:20 1.7 °C 0.3 °C 1010.4 hPa SSW 3.2 km/h 6.4 km/h 91% 0 mm
06:25 1.7 °C 0.4 °C 1010.4 hPa SSW 3.2 km/h 6.4 km/h 91% 0 mm
06:30 1.7 °C 0.4 °C 1010.4 hPa SSW 3.2 km/h 9.7 km/h 91% 0 mm
06:34 1.8 °C 0.4 °C 1010.7 hPa SW 4.8 km/h 9.7 km/h 91% 0 mm
06:39 1.7 °C 0.4 °C 1010.7 hPa SW 4.8 km/h 6.4 km/h 91% 0 mm
06:49 1.6 °C 0.2 °C 1010.7 hPa WSW 4.8 km/h 8 km/h 91% 0 mm
06:55 1.6 °C 0.2 °C 1010.7 hPa SW 9.7 km/h 11.3 km/h 91% 0 mm
07:05 1.5 °C 0.2 °C 1011.1 hPa SSW 6.4 km/h 8 km/h 91% 0 mm
07:09 1.5 °C 0.2 °C 1011.1 hPa SSW 4.8 km/h 11.3 km/h 91% 0 mm
07:15 1.5 °C 0.2 °C 1011.1 hPa SSW 4.8 km/h 11.3 km/h 91% 0 mm
07:20 1.5 °C 0.2 °C 1011.1 hPa SW 4.8 km/h 8 km/h 91% 0 mm
07:25 1.4 °C 0.1 °C 1011.1 hPa SSW 3.2 km/h 8 km/h 91% 0 mm
07:35 1.6 °C 0.4 °C 1011.4 hPa SW 4.8 km/h 9.7 km/h 92% 0 mm
07:39 1.6 °C 0.4 °C 1011.4 hPa SW 4.8 km/h 9.7 km/h 92% 0 mm
07:45 1.7 °C 0.6 °C 1011.7 hPa SW 4.8 km/h 11.3 km/h 92% 0 mm
07:50 1.8 °C 0.7 °C 1011.7 hPa SW 4.8 km/h 11.3 km/h 92% 0 mm
07:54 2 °C 0.8 °C 1012.1 hPa West 3.2 km/h 9.7 km/h 92% 0 mm
07:59 2.2 °C 1 °C 1012.1 hPa South 6.4 km/h 8 km/h 92% 0 mm
08:04 2.3 °C 1 °C 1012.1 hPa Calm   9.7 km/h 91% 0 mm
08:09 2.6 °C 1.2 °C 1012.1 hPa SW 4.8 km/h 12.9 km/h 91% 0 mm
08:14 2.8 °C 1.4 °C 1012.1 hPa SW 6.4 km/h 14.5 km/h 91% 0 mm
08:20 2.9 °C 1.6 °C 1012.1 hPa SW 8 km/h 11.3 km/h 91% 0 mm
08:25 3.2 °C 1.7 °C 1012.4 hPa WSW 4.8 km/h 12.9 km/h 90% 0 mm
08:30 3.4 °C 1.8 °C 1012.4 hPa SW 6.4 km/h 16.1 km/h 89% 0 mm
08:35 3.7 °C 1.9 °C 1012.4 hPa SW 3.2 km/h 11.3 km/h 88% 0 mm
08:39 3.9 °C 2.1 °C 1012.4 hPa SW 6.4 km/h 14.5 km/h 88% 0 mm
08:44 4.1 °C 2.1 °C 1012.4 hPa SW 6.4 km/h 14.5 km/h 87% 0 mm
08:50 4.3 °C 2.3 °C 1012.4 hPa SW 6.4 km/h 12.9 km/h 87% 0 mm
08:55 4.4 °C 2.3 °C 1012.4 hPa WSW 6.4 km/h 12.9 km/h 86% 0 mm
09:00 4.6 °C 2.3 °C 1012.4 hPa SW 6.4 km/h 14.5 km/h 85% 0 mm
09:04 4.4 °C 2.2 °C 1012.4 hPa SSW 6.4 km/h 14.5 km/h 85% 0 mm
09:09 4.6 °C 2.3 °C 1012.4 hPa SW 6.4 km/h 16.1 km/h 85% 0 mm
09:14 4.7 °C 2.2 °C 1012.4 hPa SSW 4.8 km/h 17.7 km/h 84% 0 mm
09:19 4.9 °C 2.4 °C 1012.8 hPa SW 9.7 km/h 14.5 km/h 84% 0 mm
09:24 4.9 °C 2.4 °C 1012.8 hPa WSW 6.4 km/h 17.7 km/h 84% 0 mm
09:29 5.2 °C 2.7 °C 1012.8 hPa WNW 11.3 km/h 17.7 km/h 84% 0 mm
09:34 5.1 °C 2.4 °C 1012.8 hPa SW 12.9 km/h 14.5 km/h 83% 0 mm
09:39 5.2 °C 2.6 °C 1012.8 hPa SW 8 km/h 14.5 km/h 83% 0 mm
09:50 5.4 °C 2.6 °C 1013.1 hPa SW 8 km/h 16.1 km/h 82% 0 mm
09:55 5.5 °C 2.7 °C 1013.1 hPa SW 9.7 km/h 16.1 km/h 82% 0 mm
10:00 5.8 °C 2.8 °C 1013.1 hPa SW 8 km/h 14.5 km/h 81% 0 mm
10:05 5.9 °C 2.9 °C 1013.1 hPa SW 8 km/h 14.5 km/h 81% 0 mm
10:09 5.9 °C 2.9 °C 1012.8 hPa SW 4.8 km/h 16.1 km/h 81% 0 mm
10:14 5.9 °C 2.8 °C 1013.1 hPa SW 3.2 km/h 17.7 km/h 80% 0 mm
10:19 6.2 °C 2.9 °C 1013.1 hPa South 8 km/h 16.1 km/h 80% 0 mm
10:24 6.2 °C 2.9 °C 1013.1 hPa SW 9.7 km/h 16.1 km/h 80% 0 mm
10:29 6.1 °C 2.9 °C 1013.1 hPa South 6.4 km/h 17.7 km/h 80% 0 mm
10:34 6.1 °C 2.9 °C 1013.1 hPa SW 9.7 km/h 19.3 km/h 80% 0 mm
10:39 6.2 °C 3 °C 1013.1 hPa SSW 11.3 km/h 17.7 km/h 80% 0 mm
10:44 6.7 °C 3.3 °C 1013.4 hPa SW 9.7 km/h 17.7 km/h 79% 0 mm
10:49 6.7 °C 3.1 °C 1013.4 hPa WSW 9.7 km/h 17.7 km/h 78% 0 mm
10:54 6.7 °C 3.1 °C 1013.4 hPa SW 11.3 km/h 19.3 km/h 78% 0 mm
11:00 6.6 °C 3.1 °C 1013.4 hPa SW 11.3 km/h 20.9 km/h 78% 0 mm
11:05 6.6 °C 3.1 °C 1013.4 hPa SW 6.4 km/h 19.3 km/h 78% 0 mm
11:14 6.9 °C 3.5 °C 1013.4 hPa South 14.5 km/h 20.9 km/h 79% 0 mm
11:19 7 °C 3.2 °C 1013.8 hPa WSW 12.9 km/h 17.7 km/h 77% 0 mm
11:24 7.3 °C 3.4 °C 1013.4 hPa WSW 14.5 km/h 16.1 km/h 76% 0 mm
11:29 7.3 °C 3.5 °C 1013.4 hPa WSW 9.7 km/h 20.9 km/h 77% 0 mm
11:39 7.3 °C 3.3 °C 1013.4 hPa WSW 14.5 km/h 20.9 km/h 76% 0 mm
11:44 7.2 °C 3.3 °C 1013.4 hPa SW 12.9 km/h 22.5 km/h 76% 0 mm
11:49 7.4 °C 3.4 °C 1013.4 hPa SW 14.5 km/h 22.5 km/h 76% 0 mm
11:54 7.3 °C 3.4 °C 1013.4 hPa SW 12.9 km/h 24.1 km/h 76% 0 mm
11:59 7.4 °C 3.5 °C 1013.4 hPa SW 12.9 km/h 24.1 km/h 76% 0 mm
12:05 7.7 °C 3.7 °C 1013.1 hPa SW 12.9 km/h 27.4 km/h 76% 0 mm
12:10 7.8 °C 3.6 °C 1013.1 hPa SSE 9.7 km/h 20.9 km/h 75% 0 mm
12:15 7.8 °C 3.9 °C 1013.1 hPa SW 8 km/h 24.1 km/h 76% 0 mm
12:19 7.8 °C 3.7 °C 1013.1 hPa WSW 12.9 km/h 24.1 km/h 75% 0 mm
12:24 8.2 °C 3.8 °C 1013.1 hPa WSW 24.1 km/h 24.1 km/h 74% 0 mm
12:29 8.1 °C 3.9 °C 1013.1 hPa WSW 12.9 km/h 20.9 km/h 75% 0 mm
12:34 8.1 °C 3.5 °C 1013.1 hPa West 14.5 km/h 20.9 km/h 73% 0 mm
12:39 7.9 °C 3.4 °C 1013.4 hPa SW 14.5 km/h 27.4 km/h 73% 0 mm
12:44 7.7 °C 3.4 °C 1013.1 hPa WSW 20.9 km/h 30.6 km/h 74% 0 mm
12:49 7.8 °C 3.4 °C 1013.4 hPa WSW 16.1 km/h 30.6 km/h 74% 0 mm
12:54 7.9 °C 3.8 °C 1013.4 hPa WSW 16.1 km/h 27.4 km/h 75% 0 mm
13:04 8.3 °C 3.6 °C 1013.4 hPa WSW 14.5 km/h 25.7 km/h 72% 0 mm
13:09 8.2 °C 3.8 °C 1013.4 hPa WSW 14.5 km/h 25.7 km/h 74% 0 mm
13:15 8.2 °C 3.7 °C 1013.4 hPa WSW 14.5 km/h 25.7 km/h 73% 0 mm
13:20 8.2 °C 3.6 °C 1013.4 hPa SW 14.5 km/h 24.1 km/h 73% 0 mm
13:24 8.2 °C 3.8 °C 1013.4 hPa SW 14.5 km/h 25.7 km/h 74% 0 mm
13:29 8.1 °C 3.5 °C 1013.4 hPa WSW 20.9 km/h 24.1 km/h 73% 0 mm
13:34 8.5 °C 3.7 °C 1013.4 hPa SW 19.3 km/h 22.5 km/h 72% 0 mm
13:39 8.3 °C 3.5 °C 1013.4 hPa WSW 17.7 km/h 27.4 km/h 72% 0 mm
13:44 8.6 °C 3.6 °C 1013.4 hPa WSW 14.5 km/h 22.5 km/h 71% 0 mm
13:49 8.7 °C 3.8 °C 1013.8 hPa WSW 14.5 km/h 22.5 km/h 71% 0 mm
13:54 8.9 °C 3.8 °C 1013.8 hPa SW 20.9 km/h 27.4 km/h 70% 0 mm
13:59 9.2 °C 4 °C 1013.8 hPa SW 12.9 km/h 27.4 km/h 70% 0 mm
14:04 9 °C 3.8 °C 1013.8 hPa SW 14.5 km/h 25.7 km/h 70% 0 mm
14:09 9.1 °C 3.7 °C 1013.8 hPa WSW 14.5 km/h 29 km/h 69% 0 mm
14:14 9 °C 3.8 °C 1013.8 hPa WSW 14.5 km/h 29 km/h 70% 0 mm
14:19 9.2 °C 3.8 °C 1013.8 hPa WSW 16.1 km/h 29 km/h 69% 0 mm
14:25 8.9 °C 3.5 °C 1013.8 hPa SSW 14.5 km/h 27.4 km/h 69% 0 mm
14:29 9.2 °C 3.8 °C 1013.4 hPa WSW 16.1 km/h 27.4 km/h 69% 0 mm
14:34 9.6 °C 4.2 °C 1013.4 hPa West 17.7 km/h 24.1 km/h 69% 0 mm
14:39 9.4 °C 3.8 °C 1013.8 hPa SW 12.9 km/h 25.7 km/h 68% 0 mm
14:44 9.2 °C 3.8 °C 1013.8 hPa South 12.9 km/h 30.6 km/h 69% 0 mm
14:49 8.8 °C 3.7 °C 1013.8 hPa SW 8 km/h 29 km/h 70% 0 mm
14:54 8.6 °C 3.4 °C 1013.8 hPa SW 8 km/h 27.4 km/h 70% 0 mm
15:04 8.3 °C 3.6 °C 1013.8 hPa WSW 14.5 km/h 27.4 km/h 72% 0 mm
15:09 8.4 °C 3.4 °C 1014.1 hPa WSW 14.5 km/h 27.4 km/h 71% 0 mm
15:14 8.3 °C 3.3 °C 1014.1 hPa WSW 11.3 km/h 25.7 km/h 71% 0 mm
15:19 7.9 °C 3.2 °C 1014.1 hPa West 9.7 km/h 22.5 km/h 72% 0 mm
15:24 7.8 °C 3.2 °C 1014.4 hPa WSW 12.9 km/h 30.6 km/h 73% 0 mm
15:29 7.6 °C 3.1 °C 1014.4 hPa SW 16.1 km/h 27.4 km/h 73% 0 mm
15:34 7.4 °C 2.9 °C 1014.8 hPa SSW 4.8 km/h 24.1 km/h 73% 0 mm
15:39 7.2 °C 2.9 °C 1014.8 hPa WSW 12.9 km/h 25.7 km/h 74% 0 mm
15:44 7.1 °C 2.7 °C 1014.8 hPa WSW 14.5 km/h 25.7 km/h 74% 0 mm
15:49 6.9 °C 2.8 °C 1014.8 hPa WSW 14.5 km/h 25.7 km/h 75% 0 mm
15:54 6.7 °C 2.6 °C 1015.1 hPa SW 20.9 km/h 29 km/h 75% 0 mm
15:59 6.4 °C 2.4 °C 1015.1 hPa SSE 8 km/h 27.4 km/h 76% 0 mm
16:04 6.2 °C 2.5 °C 1015.1 hPa West 8 km/h 27.4 km/h 77% 0 mm
16:09 6.2 °C 2.2 °C 1015.1 hPa WSW 12.9 km/h 27.4 km/h 76% 0 mm
16:14 6.1 °C 2.4 °C 1015.1 hPa WSW 12.9 km/h 24.1 km/h 77% 0 mm
16:19 6.1 °C 2.4 °C 1015.1 hPa WSW 12.9 km/h 25.7 km/h 77% 0 mm
16:24 6.1 °C 2.3 °C 1015.1 hPa WSW 12.9 km/h 25.7 km/h 77% 0 mm
16:29 5.9 °C 2.2 °C 1015.1 hPa WSW 11.3 km/h 25.7 km/h 77% 0 mm
16:34 5.8 °C 2.2 °C 1015.1 hPa SW 17.7 km/h 24.1 km/h 78% 0 mm
16:39 5.7 °C 2.1 °C 1015.5 hPa WSW 14.5 km/h 22.5 km/h 78% 0 mm
16:44 5.7 °C 2.1 °C 1015.5 hPa WSW 12.9 km/h 22.5 km/h 78% 0 mm
16:54 5.2 °C 1.9 °C 1015.8 hPa WSW 12.9 km/h 24.1 km/h 79% 0 mm
16:59 5.1 °C 1.8 °C 1015.8 hPa WSW 12.9 km/h 24.1 km/h 79% 0 mm
17:04 4.9 °C 1.7 °C 1015.8 hPa WSW 4.8 km/h 19.3 km/h 80% 0 mm
17:09 4.7 °C 1.7 °C 1016.1 hPa SSW 11.3 km/h 17.7 km/h 81% 0 mm
17:14 4.6 °C 1.6 °C 1016.1 hPa WSW 12.9 km/h 22.5 km/h 81% 0 mm
17:19 4.5 °C 1.5 °C 1016.1 hPa WSW 11.3 km/h 22.5 km/h 81% 0 mm
17:24 4.3 °C 1.3 °C 1016.5 hPa WSW 9.7 km/h 22.5 km/h 81% 0 mm
17:29 4.2 °C 1.4 °C 1016.5 hPa WSW 8 km/h 16.1 km/h 82% 0 mm
17:34 4.1 °C 1.3 °C 1016.5 hPa WSW 8 km/h 16.1 km/h 82% 0 mm
17:39 3.9 °C 1.2 °C 1016.5 hPa SW 6.4 km/h 9.7 km/h 82% 0 mm
17:44 3.8 °C 1.2 °C 1016.8 hPa SSW 4.8 km/h 9.7 km/h 83% 0 mm
17:49 3.7 °C 1.1 °C 1016.8 hPa SW 1.6 km/h 9.7 km/h 83% 0 mm
17:54 3.6 °C 1.1 °C 1016.8 hPa SW 4.8 km/h 9.7 km/h 84% 0 mm
17:59 3.4 °C 1 °C 1016.8 hPa SW 4.8 km/h 9.7 km/h 84% 0 mm
18:04 3.3 °C 0.8 °C 1017.2 hPa SW 3.2 km/h 8 km/h 84% 0 mm
18:09 3.2 °C 0.9 °C 1017.2 hPa WSW 4.8 km/h 11.3 km/h 85% 0 mm
18:14 3.1 °C 0.8 °C 1017.2 hPa SW 1.6 km/h 9.7 km/h 85% 0 mm
18:19 3 °C 0.7 °C 1017.5 hPa SW 3.2 km/h 9.7 km/h 85% 0 mm
18:24 2.9 °C 0.8 °C 1017.5 hPa SW 4.8 km/h 8 km/h 86% 0 mm
18:29 2.7 °C 0.6 °C 1017.5 hPa SW 3.2 km/h 8 km/h 86% 0 mm
18:34 2.7 °C 0.6 °C 1017.8 hPa SW 3.2 km/h 8 km/h 86% 0 mm
18:39 2.6 °C 0.7 °C 1017.8 hPa SW 3.2 km/h 6.4 km/h 87% 0 mm
18:44 2.6 °C 0.6 °C 1017.8 hPa WSW 3.2 km/h 8 km/h 87% 0 mm
18:49 2.4 °C 0.5 °C 1017.8 hPa SW 4.8 km/h 8 km/h 87% 0 mm
18:54 2.4 °C 0.5 °C 1017.8 hPa SW 3.2 km/h 6.4 km/h 87% 0 mm
18:59 2.3 °C 0.4 °C 1018.2 hPa Calm   3.2 km/h 87% 0 mm
19:04 2.2 °C 0.3 °C 1018.2 hPa SW 1.6 km/h 6.4 km/h 87% 0 mm
19:09 2.1 °C 0.3 °C 1018.5 hPa SW 1.6 km/h 6.4 km/h 88% 0 mm
19:14 2.1 °C 0.3 °C 1018.5 hPa Calm   4.8 km/h 88% 0 mm
19:19 1.9 °C 0.2 °C 1018.5 hPa SW 1.6 km/h 3.2 km/h 88% 0 mm
19:24 1.8 °C 0.1 °C 1018.5 hPa Calm   3.2 km/h 88% 0 mm
19:29 1.7 °C -0.1 °C 1018.5 hPa SW 3.2 km/h 4.8 km/h 88% 0 mm
19:34 1.7 °C 0.1 °C 1018.5 hPa SW 3.2 km/h 6.4 km/h 89% 0 mm
19:39 1.6 °C -0.1 °C 1018.8 hPa SW 3.2 km/h 6.4 km/h 89% 0 mm
19:44 1.4 °C -0.2 °C 1018.8 hPa SW 1.6 km/h 3.2 km/h 89% 0 mm
19:49 1.3 °C -0.3 °C 1018.8 hPa Calm   3.2 km/h 89% 0 mm
19:54 1.3 °C -0.3 °C 1018.8 hPa Calm     89% 0 mm
19:59 1.2 °C -0.4 °C 1019.2 hPa Calm     89% 0 mm
20:04 1.1 °C -0.5 °C 1019.2 hPa Calm     89% 0 mm
20:09 1 °C -0.4 °C 1019.2 hPa Calm     90% 0 mm
20:14 0.8 °C -0.6 °C 1019.2 hPa Calm     90% 0 mm
20:19 0.8 °C -0.6 °C 1019.2 hPa Calm     90% 0 mm
20:24 0.8 °C -0.6 °C 1019.2 hPa Calm     90% 0 mm
20:29 0.8 °C -0.7 °C 1019.2 hPa Calm     90% 0 mm
20:34 0.6 °C -0.9 °C 1019.2 hPa Calm     90% 0 mm
20:39 0.4 °C -1 °C 1019.5 hPa Calm     90% 0 mm
20:44 0.3 °C -1.2 °C 1019.5 hPa Calm     90% 0 mm
20:49 0.2 °C -1.3 °C 1019.5 hPa Calm     90% 0 mm
20:54 0.1 °C -1.2 °C 1019.5 hPa Calm     91% 0 mm
20:59 0 °C -1.4 °C 1019.9 hPa Calm     90% 0 mm
21:04 -0.1 °C -1.3 °C 1019.9 hPa Calm     91% 0 mm
21:09 -0.2 °C -1.4 °C 1019.9 hPa Calm     91% 0 mm
21:14 -0.2 °C -1.5 °C 1019.9 hPa Calm     91% 0 mm
21:19 -0.3 °C -1.6 °C 1019.9 hPa Calm     91% 0 mm
21:24 -0.4 °C -1.7 °C 1019.9 hPa Calm     91% 0 mm
21:29 -0.3 °C -1.6 °C 1019.9 hPa Calm     91% 0 mm
21:34 -0.3 °C -1.6 °C 1019.9 hPa Calm     91% 0 mm
21:39 -0.3 °C -1.6 °C 1019.9 hPa Calm     91% 0 mm
21:44 -0.3 °C -1.6 °C 1019.9 hPa Calm     91% 0 mm
21:49 -0.5 °C -1.8 °C 1019.9 hPa Calm     91% 0 mm
21:54 -0.5 °C -1.8 °C 1020.2 hPa Calm     91% 0 mm
21:59 -0.6 °C -1.9 °C 1020.2 hPa Calm     91% 0 mm
22:04 -0.7 °C -1.9 °C 1020.2 hPa Calm     91% 0 mm
22:09 -0.7 °C -1.9 °C 1020.2 hPa Calm     91% 0 mm
22:14 -0.8 °C -2.1 °C 1020.5 hPa Calm     91% 0 mm
22:19 -0.9 °C -2.2 °C 1020.5 hPa Calm     91% 0 mm
22:24 -1 °C -2.3 °C 1020.5 hPa Calm     91% 0 mm
22:29 -0.9 °C -2.2 °C 1020.9 hPa Calm     91% 0 mm
22:34 -0.9 °C -2.2 °C 1020.9 hPa Calm     91% 0 mm
22:39 -1 °C -2.3 °C 1020.9 hPa Calm     91% 0 mm
22:44 -0.9 °C -2.2 °C 1020.9 hPa Calm   4.8 km/h 91% 0 mm
22:49 -0.7 °C -2 °C 1020.9 hPa Calm   4.8 km/h 91% 0 mm
22:54 -0.8 °C -2.1 °C 1020.9 hPa SW 1.6 km/h 4.8 km/h 91% 0 mm
22:59 -0.9 °C -2.2 °C 1021.2 hPa Calm     91% 0 mm
23:04 -1.2 °C -2.4 °C 1020.9 hPa Calm     91% 0 mm
23:09 -1.3 °C -2.6 °C 1021.2 hPa Calm     91% 0 mm
23:14 -1.3 °C -2.4 °C 1021.2 hPa Calm     92% 0 mm
23:19 -1.3 °C -2.6 °C 1021.2 hPa Calm     91% 0 mm
23:24 -1.3 °C -2.4 °C 1021.2 hPa Calm     92% 0 mm
23:29 -1.5 °C -2.8 °C 1021.2 hPa Calm   3.2 km/h 91% 0 mm
23:34 -1.6 °C -2.8 °C 1021.2 hPa Calm   3.2 km/h 91% 0 mm
23:39 -1.6 °C -2.7 °C 1021.2 hPa Calm     92% 0 mm
23:44 -1.6 °C -2.7 °C 1021.2 hPa Calm     92% 0 mm
23:49 -1.6 °C -2.9 °C 1021.2 hPa Calm     91% 0 mm
23:54 -1.5 °C -2.6 °C 1021.2 hPa Calm     92% 0 mm
23:59 -1.3 °C -2.4 °C 1021.2 hPa Calm     92% 0 mm
Buffalo, New York, USA
Compliments of Weather Underground - 2.5 mb